Pagrindinis puslapis
METAR-TAF:

METAR-TAF

Oro uostai :

Tambakunda, Senegalas

platuma: 13-46N, ilguma: 013-41W, Aukštis: 49 m

Dabartinis oras

Ataskaita buvo paskelbta 1 valandą ir 11 minutes, ne 11:00 UTC
Vėjas 2 kt nuo kintamojo kryptimis
Temperatūra 31°C
Drėgmė 59%
Slėgis 1014 hPa
Matomumas 10 km arba daugiau
Su prošvaistėmis ne aukštis 1300 ft
Išsisklaidę debesys ne aukštis 13000 ft

METAR: GOTT 151100Z VRB02KT 9999 BKN013 SCT130 31/22 Q1014

Laikas: 12:11 (12:11 UTC)


TAF: trūkstamas

Orai ataskaitas ir orų prognozės (METAR, TAF).

turimą stotys yra geltonos ir raudonos taškus žemėlapyje.

Perkelti pele per norėdami pamatyti stoties vardą.

Tada spustelėkite, norėdami matyti oro stebėjimo ir prognozės.

Norėdami pakeisti žemėlapį: spustelėkite ant žalios mygtukų su juodo kryžiaus žemyn,; žalią mygtuką su brūkšneliu, jei norite nutolinti; arba žalių rodyklių gretimoms žemėlapius.


METAR-TAF: